ADDS METAR Data INFO
IDs: Format: Raw Decoded Include TAF

Data at: 0355 UTC 17 Oct 2017

KPSN 170335Z AUTO 04004KT 10SM CLR 15/06 A3029 RMK AO2 T01560058
KPSN 170315Z AUTO 04004KT CLR 15/06 A3030 RMK AO2 T01560060 PWINO
KPSN 170255Z AUTO 03003KT CLR 15/06 A3030 RMK AO2 T01530065 PWINO
KPSN 170235Z AUTO 00000KT CLR 13/06 A3029 RMK AO2 T01410067 PWINO
KPSN 170215Z AUTO 00000KT 10SM CLR 15/06 A3029 RMK AO2 T01550067
KPSN 170155Z AUTO 00000KT 10SM CLR 15/07 A3028 RMK AO2 T01530074
KPSN 170135Z AUTO 02004KT 10SM CLR 15/06 A3028 RMK AO2 T01550069
KPSN 170115Z AUTO 02004KT 10SM CLR 16/06 A3027 RMK AO2 T01650063
KPSN 170055Z AUTO 02003KT 10SM CLR 17/06 A3026 RMK AO2 T01800061
KPSN 170035Z AUTO 03004KT 10SM CLR 18/06 A3026 RMK AO2 T01870060
KPSN 170015Z AUTO 02004KT 10SM CLR 18/06 A3025 RMK AO2 T01900060
KPSN 162355Z AUTO 01005KT 10SM CLR 20/06 A3025 RMK AO2 T01980058
KPSN 162335Z AUTO 02004KT 10SM CLR 21/05 A3025 RMK AO2 T02100056
KPSN 162315Z AUTO 02007KT 10SM CLR 21/05 A3025 RMK AO2 T02180052
KPSN 162255Z AUTO 01008KT 10SM CLR 22/06 A3024 RMK AO2 T02230058
KPSN 162235Z AUTO 03008KT CLR 22/05 A3024 RMK AO2 T02260055 PWINO
KPSN 162215Z AUTO 35007G14KT 10SM CLR 22/05 A3025 RMK AO2 T02290054 PWINO
KPSN 162155Z AUTO 04008KT 350V050 10SM CLR 23/05 A3025 RMK AO2 T02310055 PWINO
KPSN 162135Z AUTO 02009KT 10SM CLR 23/05 A3025 RMK AO2 T02300053
KPSN 162115Z AUTO 36007KT 10SM CLR 23/05 A3025 RMK AO2 T02320058
KPSN 162055Z AUTO 36004G15KT CLR 22/05 A3026 RMK AO2 T02290058 PWINO
KPSN 162035Z AUTO 04007KT 10SM CLR 22/06 A3027 RMK AO2 T02300059
KPSN 162015Z AUTO 35007G15KT 10SM CLR 22/06 A3027 RMK AO2 T02270060
KPSN 161955Z AUTO 34006G14KT 10SM CLR 22/06 A3028 RMK AO2 T02250059
KPSN 161935Z AUTO 02009KT CLR 22/06 A3029 RMK AO2 T02260067 PWINO
KPSN 161915Z AUTO 01006KT 10SM CLR 22/06 A3030 RMK AO2 T02220069 PWINO
KPSN 161855Z AUTO 05009KT CLR 22/07 A3031 RMK AO2 T02210070
KPSN 161835Z AUTO 36008KT 340V050 10SM CLR 21/07 A3033 RMK AO2 T02120073
KPSN 161815Z AUTO 03007KT 10SM CLR 21/07 A3034 RMK AO2 T02100075
KPSN 161755Z AUTO 36006G14KT 10SM CLR 20/07 A3035 RMK AO2 T02080074
KPSN 161735Z AUTO 01009KT 300V050 10SM CLR 20/07 A3036 RMK AO2 T02040074
KPSN 161715Z AUTO 03009KT 10SM CLR 20/07 A3037 RMK AO2 T01990074
KPSN 161655Z AUTO 05007KT 020V080 10SM CLR 19/07 A3038 RMK AO2 T01940076
KPSN 161635Z AUTO 05010G15KT 10SM CLR 18/07 A3038 RMK AO2 T01870071
KPSN 161615Z AUTO 05009G14KT 10SM CLR 18/07 A3039 RMK AO2 T01810073
KPSN 161555Z AUTO 04008KT CLR 17/07 A3039 RMK AO2 T01790077 PWINO
KPSN 161535Z AUTO 06008G14KT CLR 17/07 A3039 RMK AO2 T01700077 PWINO
KPSN 161515Z AUTO 04012G16KT CLR 16/07 A3039 RMK AO2 T01610074 PWINO
KPSN 161455Z AUTO 05009G18KT CLR 15/07 A3039 RMK AO2 T01530074 PWINO
KPSN 161435Z AUTO 03012G15KT CLR 15/07 A3038 RMK AO2 T01500076 PWINO
KPSN 161415Z AUTO 04012G21KT CLR 14/07 A3038 RMK AO2 T01440073 PWINO
KPSN 161355Z AUTO 03008KT CLR 13/07 A3037 RMK AO2 T01380074 PWINO
KPSN 161335Z AUTO 02007KT CLR 12/07 A3036 RMK AO2 T01270075 PWINO
KPSN 161315Z AUTO 02006KT CLR 11/07 A3036 RMK AO2 T01180073 PWINO
KPSN 161255Z AUTO 01006KT CLR 11/07 A3036 RMK AO2 T01110072 PWINO
KPSN 161235Z AUTO 01006KT CLR 10/07 A3035 RMK AO2 T01070072 PWINO
KPSN 161215Z AUTO 35005KT CLR 10/07 A3035 RMK AO2 T01000070 PWINO
KPSN 161155Z AUTO 35005KT CLR 09/06 A3034 RMK AO2 T00950068 PWINO
KPSN 161135Z AUTO 34003KT CLR 10/06 A3034 RMK AO2 T01000069 PWINO
KPSN 161115Z AUTO 34004KT 09/07 A3033 RMK AO2 T00950070 PWINO
KPSN 161055Z AUTO 35005KT CLR 10/06 A3032 RMK AO2 T00970069 PWINO
KPSN 161035Z AUTO 35006KT CLR 11/07 A3032 RMK AO2 T01090071 PWINO
KPSN 161015Z AUTO 36007KT CLR 11/07 A3031 RMK AO2 T01110072 PWINO
KPSN 160955Z AUTO 35006KT CLR 11/07 A3031 RMK AO2 T01090072 PWINO
KPSN 160935Z AUTO 35006KT CLR 11/07 A3031 RMK AO2 T01100073 PWINO
KPSN 160915Z AUTO 35007KT CLR 11/07 A3031 RMK AO2 T01150075 PWINO
KPSN 160855Z AUTO 35008KT CLR 11/07 A3031 RMK AO2 T01150075 PWINO
KPSN 160835Z AUTO 36008KT CLR 11/07 A3031 RMK AO2 T01090075 PWINO
KPSN 160815Z AUTO 35005KT CLR 10/07 A3031 RMK AO2 T01050074 PWINO
KPSN 160755Z AUTO 34004KT CLR 12/07 A3031 RMK AO2 T01210075 PWINO
KPSN 160735Z AUTO 33005KT CLR 12/07 A3031 RMK AO2 T01270073 PWINO
KPSN 160715Z AUTO 33004KT CLR 12/07 A3031 RMK AO2 T01250072 PWINO
KPSN 160655Z AUTO 33004KT CLR 12/07 A3031 RMK AO2 T01300072 PWINO
KPSN 160635Z AUTO 33003KT CLR 12/07 A3031 RMK AO2 T01280072 PWINO
KPSN 160615Z AUTO 34004KT CLR 13/07 A3031 RMK AO2 T01330072 PWINO
KPSN 160555Z AUTO 35005KT CLR 13/07 A3031 RMK AO2 T01360072 PWINO
KPSN 160535Z AUTO 35005KT 10SM CLR 13/07 A3031 RMK AO2 T01380071
KPSN 160515Z AUTO 35006KT 10SM CLR 15/07 A3031 RMK AO2 T01470070
KPSN 160455Z AUTO 36006KT 10SM CLR 15/07 A3031 RMK AO2 T01480070
KPSN 160435Z AUTO 35007G14KT 10SM CLR 15/06 A3031 RMK AO2 T01570068
KPSN 160415Z AUTO 36008G14KT 10SM CLR 16/06 A3030 RMK AO2 T01600068
KPSN 160355Z AUTO 35007KT 10SM CLR 16/07 A3030 RMK AO2 T01610070
KPSN 160335Z AUTO 35008G14KT 10SM CLR 16/07 A3029 RMK AO2 T01670070
KPSN 160315Z AUTO 35007KT CLR 16/07 A3028 RMK AO2 T01620075 PWINO
KPSN 160255Z AUTO 34005KT CLR 16/07 A3028 RMK AO2 T01620079 PWINO
KPSN 160235Z AUTO 34005KT CLR 16/08 A3028 RMK AO2 T01590082 PWINO
KPSN 160215Z AUTO 34003KT CLR 16/08 A3027 RMK AO2 T01630082 PWINO
KPSN 160155Z AUTO 35005KT 10SM CLR 16/08 A3027 RMK AO2 T01670085
KPSN 160135Z AUTO 34005KT 10SM CLR 17/08 A3027 RMK AO2 T01770087
KPSN 160115Z AUTO 34007KT 10SM CLR 18/08 A3026 RMK AO2 T01840091
KPSN 160055Z AUTO 34005KT 10SM CLR 18/09 A3025 RMK AO2 T01830095
KPSN 160035Z AUTO 34006KT 10SM CLR 20/09 A3024 RMK AO2 T02000094
KPSN 160015Z AUTO 33005KT 10SM CLR 20/09 A3023 RMK AO2 T02020096
KPSN 152355Z AUTO 35007KT CLR 21/08 A3021 RMK AO2 T02150088
KPSN 152335Z AUTO 34009G14KT 10SM CLR 22/09 A3020 RMK AO2 T02220093
KPSN 152315Z AUTO 36012G20KT 10SM CLR 22/08 A3019 RMK AO2 T02300081
KPSN 152255Z AUTO 35009G18KT 10SM CLR 23/09 A3018 RMK AO2 T02370094 PWINO
KPSN 152235Z AUTO 33010G16KT 10SM CLR 23/09 A3018 RMK AO2 T02410092
KPSN 152215Z AUTO 35012G20KT 10SM CLR 24/10 A3018 RMK AO2 T02460100
KPSN 152155Z AUTO 34012G20KT 10SM CLR 25/10 A3018 RMK AO2 T02480106
KPSN 152135Z AUTO 36017G23KT 10SM CLR 25/11 A3017 RMK AO2 T02480113
KPSN 152115Z AUTO 35007G15KT 10SM CLR 24/13 A3017 RMK AO2 T02450134
KPSN 152055Z AUTO 35010G19KT 10SM CLR 24/14 A3017 RMK AO2 T02420145
KPSN 152035Z AUTO 34009G18KT 10SM CLR 23/15 A3018 RMK AO2 T02370150 PWINO
KPSN 152015Z AUTO 34011G15KT SCT024 23/15 A3018 RMK AO2 T02320152 PWINO
KPSN 151955Z AUTO 34009G15KT 10SM BKN024 BKN029 21/15 A3019 RMK AO2 T02160158
KPSN 151935Z AUTO 32010G16KT 10SM OVC024 20/15 A3019 RMK AO2 T02050155
KPSN 151915Z AUTO 32012G18KT 10SM OVC024 21/15 A3020 RMK AO2 T02110157
KPSN 151855Z AUTO 32008G19KT 10SM OVC026 21/16 A3020 RMK AO2 T02190166
KPSN 151835Z AUTO 36011G17KT 10SM OVC024 22/17 A3020 RMK AO2 T02290170 PWINO
KPSN 151815Z AUTO 33012G17KT OVC020 21/16 A3021 RMK AO2 T02170167
KPSN 151755Z AUTO 33011G20KT 10SM OVC020 22/17 A3021 RMK AO2 T02190173
KPSN 151735Z AUTO 32011G18KT 10SM BKN020 OVC026 20/17 A3021 RMK AO2 T02080170
KPSN 151715Z AUTO 34011G16KT 10SM OVC024 21/17 A3021 RMK AO2 T02170171
KPSN 151655Z AUTO 33008G17KT 10SM OVC022 21/17 A3020 RMK AO2 T02160172
KPSN 151635Z AUTO 34009G15KT 10SM BKN017 OVC024 21/17 A3020 RMK AO2 T02150175
KPSN 151615Z AUTO 34007KT OVC015 21/18 A3019 RMK AO2 T02130184 PWINO